Time;durP1;ratioP1;P1;durP2;ratioP2;P2;SDS_P1;SDS_P2;PMS_P1;PMS_P2;Temp;Humidity;BMP_temperature;BMP_pressure;BME280_temperature;BME280_humidity;BME280_pressure;Samples;Min_cycle;Max_cycle;Signal;HPM_P1;HPM_P2
2024/02/22 00:02:11;;;;;;;;;1.00;1.00;;;;;;;;5096738;28;8833;-81
2024/02/22 00:04:40;;;;;;;;;2.00;2.00;;;;;;;;5086527;28;8874;-87
2024/02/22 00:07:10;;;;;;;;;1.00;1.00;;;;;;;;5080550;28;8892;-88
2024/02/22 00:09:37;;;;;;;;;1.75;1.75;;;;;;;;5088890;28;9059;-86
2024/02/22 00:12:05;;;;;;;;;2.00;2.00;;;;;;;;5092041;28;8843;-87
2024/02/22 00:14:34;;;;;;;;;0.25;0.25;;;;;;;;5099496;28;8983;-82
2024/02/22 00:17:01;;;;;;;;;4.00;4.00;;;;;;;;5091328;28;8854;-91
2024/02/22 00:19:31;;;;;;;;;3.00;3.00;;;;;;;;5088892;28;8823;-86
2024/02/22 00:22:00;;;;;;;;;3.00;3.00;;;;;;;;5089221;28;8870;-83
2024/02/22 00:24:29;;;;;;;;;3.00;3.00;;;;;;;;5089076;28;9005;-85
2024/02/22 00:26:56;;;;;;;;;2.50;2.50;;;;;;;;5087493;28;8974;-80
2024/02/22 00:29:24;;;;;;;;;2.25;2.25;;;;;;;;5089015;28;8867;-85
2024/02/22 00:31:51;;;;;;;;;4.50;3.50;;;;;;;;5088907;28;8829;-87
2024/02/22 00:34:18;;;;;;;;;3.25;3.25;;;;;;;;5101771;28;8843;-89
2024/02/22 00:36:46;;;;;;;;;3.50;3.50;;;;;;;;5092396;28;8854;-85
2024/02/22 00:39:17;;;;;;;;;3.50;3.50;;;;;;;;5092924;28;8872;-84
2024/02/22 00:41:44;;;;;;;;;3.00;3.00;;;;;;;;5093221;28;8984;-84
2024/02/22 00:44:12;;;;;;;;;3.00;3.00;;;;;;;;5091362;28;8877;-82
2024/02/22 00:46:39;;;;;;;;;4.75;4.00;;;;;;;;5093312;28;8973;-83
2024/02/22 00:49:07;;;;;;;;;4.00;2.25;;;;;;;;5094610;28;8847;-87
2024/02/22 00:51:34;;;;;;;;;4.25;4.00;;;;;;;;5090170;28;8864;-86
2024/02/22 00:54:01;;;;;;;;;2.00;2.00;;;;;;;;5090091;28;8843;-90
2024/02/22 00:56:30;;;;;;;;;2.25;2.25;;;;;;;;5090035;28;8904;-85
2024/02/22 00:58:57;;;;;;;;;5.25;4.00;;;;;;;;5093095;28;8884;-90
2024/02/22 01:01:26;;;;;;;;;3.50;2.75;;;;;;;;5092347;28;8817;-83
2024/02/22 01:03:54;;;;;;;;;3.00;3.00;;;;;;;;5089953;28;8861;-90
2024/02/22 01:06:21;;;;;;;;;2.75;2.75;;;;;;;;5090365;28;9573;-91
2024/02/22 01:08:48;;;;;;;;;3.00;3.00;;;;;;;;5091211;28;8846;-89
2024/02/22 01:11:15;;;;;;;;;2.25;2.25;;;;;;;;5093092;28;8953;-86
2024/02/22 01:13:48;;;;;;;;;2.25;2.25;;;;;;;;5100503;28;8877;-88
2024/02/22 01:16:17;;;;;;;;;1.00;1.00;;;;;;;;5092494;28;8854;-91
2024/02/22 01:18:45;;;;;;;;;1.75;1.75;;;;;;;;5092868;28;8852;-90
2024/02/22 01:21:13;;;;;;;;;3.00;1.25;;;;;;;;5094833;28;8884;-89
2024/02/22 01:23:40;;;;;;;;;1.00;1.00;;;;;;;;5095946;28;8876;-93
2024/02/22 01:26:07;;;;;;;;;0.75;0.75;;;;;;;;5095573;28;8842;-91
2024/02/22 01:28:35;;;;;;;;;1.00;1.00;;;;;;;;5090928;28;8952;-92
2024/02/22 01:31:04;;;;;;;;;1.00;1.00;;;;;;;;5091467;28;9576;-90
2024/02/22 01:33:31;;;;;;;;;0.00;0.00;;;;;;;;5091230;28;9759;-92
2024/02/22 01:35:59;;;;;;;;;0.75;0.75;;;;;;;;5092133;28;8883;-86
2024/02/22 01:38:29;;;;;;;;;2.00;0.00;;;;;;;;5092855;28;8880;-87
2024/02/22 01:40:56;;;;;;;;;1.00;1.00;;;;;;;;5092919;28;8952;-89
2024/02/22 01:43:25;;;;;;;;;0.00;0.00;;;;;;;;5063893;28;8849;-89
2024/02/22 01:45:53;;;;;;;;;0.75;0.75;;;;;;;;5093436;28;9009;-94
2024/02/22 01:48:21;;;;;;;;;0.50;0.00;;;;;;;;5092694;28;8909;-90
2024/02/22 01:50:52;;;;;;;;;0.75;0.75;;;;;;;;5073058;28;8949;-87
2024/02/22 01:53:20;;;;;;;;;2.00;0.00;;;;;;;;5083075;28;8873;-84
2024/02/22 01:55:48;;;;;;;;;0.00;0.00;;;;;;;;5091959;28;8876;-90
2024/02/22 01:58:16;;;;;;;;;1.50;0.00;;;;;;;;5090082;28;8857;-88
2024/02/22 02:00:44;;;;;;;;;0.00;0.00;;;;;;;;5090698;28;8871;-86
2024/02/22 02:03:11;;;;;;;;;1.00;1.00;;;;;;;;5091765;28;8931;-88
2024/02/22 02:05:40;;;;;;;;;0.50;0.50;;;;;;;;5081236;28;8981;-87
2024/02/22 02:08:07;;;;;;;;;0.00;0.00;;;;;;;;5095059;28;8846;-88
2024/02/22 02:10:35;;;;;;;;;0.00;0.00;;;;;;;;5091001;28;9012;-84
2024/02/22 02:13:05;;;;;;;;;0.00;0.00;;;;;;;;5101539;28;8870;-84
2024/02/22 02:15:32;;;;;;;;;0.25;0.25;;;;;;;;5078622;28;8847;-85
2024/02/22 02:18:00;;;;;;;;;0.00;0.00;;;;;;;;5091262;28;8968;-83
2024/02/22 02:20:29;;;;;;;;;0.00;0.00;;;;;;;;5092571;28;8988;-83
2024/02/22 02:23:10;;;;;;;;;0.00;0.00;;;;;;;;5092839;28;8984;-91
2024/02/22 02:25:39;;;;;;;;;0.75;0.75;;;;;;;;5095617;28;8969;-85
2024/02/22 02:28:07;;;;;;;;;0.00;0.00;;;;;;;;5098005;28;8842;-84
2024/02/22 02:30:34;;;;;;;;;0.00;0.00;;;;;;;;5098570;28;8770;-87
2024/02/22 02:33:01;;;;;;;;;0.00;0.00;;;;;;;;5096641;28;9676;-85
2024/02/22 02:35:29;;;;;;;;;0.25;0.25;;;;;;;;5096766;28;8968;-82
2024/02/22 02:37:57;;;;;;;;;0.00;0.00;;;;;;;;5098029;28;8864;-83
2024/02/22 02:40:25;;;;;;;;;0.00;0.00;;;;;;;;5098975;28;8858;-91
2024/02/22 02:42:53;;;;;;;;;1.00;1.00;;;;;;;;5092307;28;8843;-89
2024/02/22 02:45:21;;;;;;;;;1.25;1.00;;;;;;;;5096365;28;8996;-91
2024/02/22 02:47:48;;;;;;;;;0.50;0.50;;;;;;;;5106606;28;8842;-93
2024/02/22 02:50:15;;;;;;;;;1.00;1.00;;;;;;;;5092752;28;8858;-95
2024/02/22 02:52:43;;;;;;;;;0.50;0.50;;;;;;;;5090741;28;8858;-88
2024/02/22 02:55:13;;;;;;;;;0.00;0.00;;;;;;;;5090381;28;8854;-88
2024/02/22 02:57:41;;;;;;;;;0.00;0.00;;;;;;;;5090612;28;8853;-91
2024/02/22 03:00:13;;;;;;;;;0.00;0.00;;;;;;;;5089162;28;8870;-95
2024/02/22 03:02:41;;;;;;;;;0.00;0.00;;;;;;;;5091141;28;8858;-90
2024/02/22 03:05:09;;;;;;;;;0.00;0.00;;;;;;;;5090878;28;8880;-94
2024/02/22 03:07:36;;;;;;;;;0.00;0.00;;;;;;;;5089368;28;8973;-93
2024/02/22 03:10:05;;;;;;;;;0.00;0.00;;;;;;;;5091770;28;8977;-90
2024/02/22 03:12:32;;;;;;;;;0.00;0.00;;;;;;;;5093696;28;8869;-87
2024/02/22 03:15:00;;;;;;;;;0.00;0.00;;;;;;;;5092982;28;8861;-83
2024/02/22 03:17:29;;;;;;;;;0.00;0.00;;;;;;;;5092704;28;8858;-92
2024/02/22 03:19:59;;;;;;;;;0.00;0.00;;;;;;;;5090278;28;8865;-92
2024/02/22 03:22:28;;;;;;;;;0.00;0.00;;;;;;;;5090701;28;8858;-90
2024/02/22 03:24:55;;;;;;;;;0.00;0.00;;;;;;;;5090440;28;8865;-89
2024/02/22 03:27:23;;;;;;;;;0.00;0.00;;;;;;;;5089722;28;8945;-92
2024/02/22 03:29:50;;;;;;;;;0.00;0.00;;;;;;;;5089977;28;8890;-93
2024/02/22 03:32:17;;;;;;;;;0.00;0.00;;;;;;;;5089258;28;9576;-91
2024/02/22 03:34:48;;;;;;;;;0.00;0.00;;;;;;;;5089476;28;8961;-89
2024/02/22 03:37:15;;;;;;;;;0.00;0.00;;;;;;;;5089632;28;8834;-87
2024/02/22 03:39:44;;;;;;;;;0.00;0.00;;;;;;;;5091500;28;8830;-91
2024/02/22 03:42:12;;;;;;;;;0.00;0.00;;;;;;;;5090334;28;8850;-83
2024/02/22 03:44:40;;;;;;;;;0.00;0.00;;;;;;;;5090521;28;8872;-88
2024/02/22 03:47:07;;;;;;;;;0.00;0.00;;;;;;;;5101949;28;8955;-87
2024/02/22 03:49:35;;;;;;;;;0.00;0.00;;;;;;;;5090358;28;8938;-84
2024/02/22 03:52:06;;;;;;;;;0.00;0.00;;;;;;;;5088526;28;8885;-86
2024/02/22 03:54:36;;;;;;;;;0.00;0.00;;;;;;;;5089441;28;8873;-86
2024/02/22 03:57:03;;;;;;;;;0.00;0.00;;;;;;;;5089392;28;8834;-89
2024/02/22 03:59:31;;;;;;;;;0.00;0.00;;;;;;;;5089416;28;9020;-86
2024/02/22 04:01:58;;;;;;;;;0.00;0.00;;;;;;;;5091631;28;8795;-83
2024/02/22 04:04:26;;;;;;;;;0.00;0.00;;;;;;;;5090253;28;8857;-82
2024/02/22 04:06:53;;;;;;;;;0.00;0.00;;;;;;;;5089500;28;8851;-84
2024/02/22 04:09:22;;;;;;;;;0.00;0.00;;;;;;;;5088957;28;8891;-85
2024/02/22 04:11:49;;;;;;;;;0.00;0.00;;;;;;;;5089091;28;8854;-83
2024/02/22 04:14:17;;;;;;;;;0.00;0.00;;;;;;;;5090970;28;8858;-84
2024/02/22 04:16:44;;;;;;;;;0.00;0.00;;;;;;;;5092364;28;8834;-85
2024/02/22 04:19:11;;;;;;;;;0.00;0.00;;;;;;;;5093257;28;8904;-82
2024/02/22 04:21:41;;;;;;;;;2.00;0.00;;;;;;;;5094464;28;8968;-82
2024/02/22 04:24:09;;;;;;;;;0.00;0.00;;;;;;;;5094441;28;8865;-82
2024/02/22 04:26:47;;;;;;;;;0.00;0.00;;;;;;;;5099657;28;8862;-82
2024/02/22 04:29:15;;;;;;;;;0.00;0.00;;;;;;;;5095848;28;8985;-83
2024/02/22 04:31:43;;;;;;;;;0.00;0.00;;;;;;;;5090108;28;8806;-87
2024/02/22 04:34:10;;;;;;;;;0.00;0.00;;;;;;;;5090092;28;8862;-91
2024/02/22 04:36:40;;;;;;;;;0.00;0.00;;;;;;;;5098956;28;8854;-86
2024/02/22 04:39:09;;;;;;;;;0.25;0.00;;;;;;;;5091664;28;8869;-91
2024/02/22 04:41:38;;;;;;;;;0.00;0.00;;;;;;;;5096312;28;8834;-92
2024/02/22 04:44:06;;;;;;;;;0.00;0.00;;;;;;;;5081114;28;8872;-91
2024/02/22 04:46:33;;;;;;;;;0.00;0.00;;;;;;;;5087828;28;8892;-91
2024/02/22 04:49:04;;;;;;;;;0.00;0.00;;;;;;;;5088703;28;8842;-85
2024/02/22 04:51:32;;;;;;;;;0.00;0.00;;;;;;;;5092662;28;8884;-89
2024/02/22 04:53:59;;;;;;;;;0.00;0.00;;;;;;;;5092654;28;8858;-92
2024/02/22 04:56:28;;;;;;;;;0.00;0.00;;;;;;;;5092683;28;8976;-82
2024/02/22 04:58:59;;;;;;;;;0.00;0.00;;;;;;;;5094986;28;8840;-90
2024/02/22 05:01:27;;;;;;;;;0.75;0.75;;;;;;;;5096729;28;8864;-94
2024/02/22 05:03:54;;;;;;;;;1.00;1.00;;;;;;;;5097632;28;9644;-91
2024/02/22 05:06:22;;;;;;;;;0.50;0.50;;;;;;;;5107094;28;8906;-85
2024/02/22 05:08:49;;;;;;;;;1.00;1.00;;;;;;;;5104697;28;8968;-93
2024/02/22 05:11:17;;;;;;;;;1.00;1.00;;;;;;;;5093852;28;8845;-90
2024/02/22 05:13:44;;;;;;;;;3.00;1.00;;;;;;;;5091935;28;8842;-88
2024/02/22 05:16:14;;;;;;;;;0.75;0.75;;;;;;;;5106791;28;8890;-93
2024/02/22 05:18:50;;;;;;;;;0.25;0.25;;;;;;;;5093653;28;8916;-82
2024/02/22 05:21:18;;;;;;;;;0.00;0.00;;;;;;;;5094902;28;8957;-89
2024/02/22 05:23:45;;;;;;;;;1.75;1.75;;;;;;;;5093874;28;8847;-85
2024/02/22 05:26:12;;;;;;;;;2.75;1.00;;;;;;;;5098028;28;8862;-94
2024/02/22 05:28:40;;;;;;;;;0.25;0.25;;;;;;;;5094474;28;8984;-92
2024/02/22 05:31:23;;;;;;;;;0.25;0.25;;;;;;;;5092738;28;8801;-93
2024/02/22 05:33:50;;;;;;;;;2.00;1.50;;;;;;;;5104498;28;8864;-84
2024/02/22 05:36:19;;;;;;;;;1.25;1.25;;;;;;;;5091879;28;8842;-91
2024/02/22 05:38:46;;;;;;;;;0.75;0.75;;;;;;;;5091062;28;8866;-88
2024/02/22 05:41:14;;;;;;;;;1.50;1.50;;;;;;;;5091957;28;8858;-88
2024/02/22 05:43:41;;;;;;;;;1.25;1.25;;;;;;;;5091041;28;8832;-87
2024/02/22 05:46:09;;;;;;;;;3.00;2.00;;;;;;;;5091118;28;9671;-86
2024/02/22 05:48:37;;;;;;;;;1.25;1.25;;;;;;;;5103739;28;8852;-85
2024/02/22 05:51:05;;;;;;;;;3.00;1.00;;;;;;;;5091165;28;8866;-85
2024/02/22 05:53:32;;;;;;;;;1.50;1.50;;;;;;;;5090965;28;8977;-87
2024/02/22 05:56:00;;;;;;;;;2.00;2.00;;;;;;;;5091868;28;8997;-81
2024/02/22 05:58:27;;;;;;;;;2.00;2.00;;;;;;;;5093293;28;8861;-82
2024/02/22 06:00:54;;;;;;;;;1.00;1.00;;;;;;;;5091326;28;8801;-82
2024/02/22 06:03:22;;;;;;;;;2.00;2.00;;;;;;;;5093468;28;8834;-85
2024/02/22 06:05:51;;;;;;;;;2.00;2.00;;;;;;;;5094377;28;8865;-87
2024/02/22 06:08:18;;;;;;;;;4.00;4.00;;;;;;;;5096214;28;8976;-84
2024/02/22 06:10:47;;;;;;;;;3.25;1.75;;;;;;;;5095000;28;8846;-81
2024/02/22 06:13:14;;;;;;;;;2.00;2.00;;;;;;;;5094336;28;8953;-84
2024/02/22 06:15:41;;;;;;;;;2.25;2.25;;;;;;;;5094688;28;8847;-79
2024/02/22 06:18:08;;;;;;;;;2.00;2.00;;;;;;;;5093925;28;8882;-78
2024/02/22 06:20:46;;;;;;;;;3.00;3.00;;;;;;;;5090527;28;8968;-80
2024/02/22 06:23:15;;;;;;;;;2.00;2.00;;;;;;;;5087230;28;8892;-79
2024/02/22 06:25:44;;;;;;;;;3.00;3.00;;;;;;;;5089882;28;8942;-77
2024/02/22 06:28:16;;;;;;;;;2.00;2.00;;;;;;;;5089993;28;8973;-78
2024/02/22 06:30:43;;;;;;;;;2.50;2.50;;;;;;;;5089124;28;8758;-75
2024/02/22 06:33:10;;;;;;;;;1.00;1.00;;;;;;;;5078621;28;8827;-77
2024/02/22 06:35:37;;;;;;;;;2.00;2.00;;;;;;;;5089049;28;8847;-77
2024/02/22 06:38:05;;;;;;;;;1.00;1.00;;;;;;;;5089957;28;8846;-76
2024/02/22 06:40:36;;;;;;;;;3.00;2.00;;;;;;;;5089000;28;8842;-75
2024/02/22 06:43:17;;;;;;;;;2.00;2.00;;;;;;;;5089601;28;9637;-81
2024/02/22 06:45:45;;;;;;;;;1.50;1.50;;;;;;;;5089199;28;8846;-77
2024/02/22 06:48:16;;;;;;;;;1.00;1.00;;;;;;;;5089716;28;9624;-76
2024/02/22 06:50:44;;;;;;;;;2.00;2.00;;;;;;;;5088124;28;8866;-74
2024/02/22 06:53:11;;;;;;;;;5.00;5.00;;;;;;;;5089766;28;8838;-75
2024/02/22 06:55:39;;;;;;;;;3.00;3.00;;;;;;;;5087916;28;8858;-75
2024/02/22 06:58:06;;;;;;;;;3.00;3.00;;;;;;;;5088861;28;8862;-77
2024/02/22 07:00:37;;;;;;;;;4.50;4.50;;;;;;;;5088222;28;9634;-75
2024/02/22 07:03:05;;;;;;;;;4.50;3.00;;;;;;;;5054247;28;8826;-76
2024/02/22 07:05:37;;;;;;;;;6.00;5.25;;;;;;;;5089025;28;8899;-80
2024/02/22 07:08:05;;;;;;;;;5.25;5.25;;;;;;;;5088904;28;8988;-77
2024/02/22 07:10:32;;;;;;;;;4.00;4.00;;;;;;;;5089376;28;8855;-74
2024/02/22 07:13:01;;;;;;;;;3.50;3.50;;;;;;;;5087661;28;8819;-79
2024/02/22 07:15:31;;;;;;;;;4.75;4.75;;;;;;;;5089726;28;8857;-76
2024/02/22 07:17:59;;;;;;;;;2.00;2.00;;;;;;;;5089496;28;8838;-76
2024/02/22 07:20:26;;;;;;;;;4.25;4.00;;;;;;;;5089720;28;8854;-78
2024/02/22 07:22:55;;;;;;;;;4.00;4.00;;;;;;;;5088293;28;8850;-74
2024/02/22 07:25:36;;;;;;;;;3.75;3.75;;;;;;;;5089251;28;8884;-76
2024/02/22 07:28:15;;;;;;;;;3.25;3.25;;;;;;;;5086431;28;8843;-76
2024/02/22 07:30:43;;;;;;;;;2.50;2.50;;;;;;;;5084920;28;8774;-76
2024/02/22 07:33:10;;;;;;;;;3.50;3.50;;;;;;;;5092876;28;8830;-76
2024/02/22 07:35:40;;;;;;;;;2.00;2.00;;;;;;;;5088071;28;8850;-74
2024/02/22 07:38:07;;;;;;;;;3.25;2.75;;;;;;;;5085997;28;8884;-78
2024/02/22 07:40:34;;;;;;;;;3.00;3.00;;;;;;;;5083940;28;8977;-79
2024/02/22 07:43:02;;;;;;;;;3.00;3.00;;;;;;;;5088335;28;8834;-82
2024/02/22 07:45:33;;;;;;;;;2.25;2.25;;;;;;;;5089501;28;8866;-78
2024/02/22 07:48:06;;;;;;;;;2.00;2.00;;;;;;;;5089750;28;8846;-74
2024/02/22 07:50:33;;;;;;;;;1.75;1.75;;;;;;;;5080554;28;8851;-81
2024/02/22 07:53:00;;;;;;;;;1.00;1.00;;;;;;;;5091705;28;8960;-75
2024/02/22 07:55:34;;;;;;;;;2.75;2.75;;;;;;;;5092203;28;8863;-79
2024/02/22 07:58:04;;;;;;;;;2.00;2.00;;;;;;;;5086311;28;8834;-77
2024/02/22 08:00:33;;;;;;;;;1.00;1.00;;;;;;;;5085646;28;9136;-77
2024/02/22 08:03:00;;;;;;;;;1.00;1.00;;;;;;;;5091632;28;8856;-79
2024/02/22 08:05:27;;;;;;;;;2.00;2.00;;;;;;;;5089617;28;8874;-76
2024/02/22 08:07:54;;;;;;;;;2.00;2.00;;;;;;;;5086884;28;8973;-75
2024/02/22 08:10:22;;;;;;;;;2.25;2.25;;;;;;;;5088145;28;8980;-76
2024/02/22 08:12:49;;;;;;;;;2.00;2.00;;;;;;;;5076393;28;8849;-75
2024/02/22 08:15:16;;;;;;;;;1.75;1.75;;;;;;;;5089796;28;8874;-76
2024/02/22 08:17:45;;;;;;;;;1.00;1.00;;;;;;;;5087891;28;8842;-75
2024/02/22 08:20:14;;;;;;;;;2.00;1.00;;;;;;;;5087710;28;8929;-76
2024/02/22 08:22:43;;;;;;;;;1.00;1.00;;;;;;;;5087243;28;8842;-76
2024/02/22 08:25:10;;;;;;;;;1.75;1.00;;;;;;;;5087260;28;8943;-77
2024/02/22 08:27:38;;;;;;;;;0.75;0.75;;;;;;;;5087104;28;8850;-74
2024/02/22 08:30:06;;;;;;;;;1.75;1.75;;;;;;;;5086722;28;8996;-76
2024/02/22 08:32:33;;;;;;;;;0.25;0.25;;;;;;;;5086654;28;8842;-75
2024/02/22 08:35:02;;;;;;;;;0.75;0.75;;;;;;;;5087567;28;8839;-77
2024/02/22 08:37:32;;;;;;;;;0.50;0.50;;;;;;;;5087095;28;8838;-75
2024/02/22 08:40:00;;;;;;;;;1.00;1.00;;;;;;;;5088985;28;8963;-77
2024/02/22 08:42:27;;;;;;;;;0.00;0.00;;;;;;;;5087714;28;8846;-76
2024/02/22 08:44:56;;;;;;;;;0.00;0.00;;;;;;;;5087484;28;8862;-75
2024/02/22 08:47:24;;;;;;;;;0.00;0.00;;;;;;;;5087425;28;8846;-76
2024/02/22 08:49:52;;;;;;;;;0.00;0.00;;;;;;;;5087472;28;9644;-76
2024/02/22 08:52:20;;;;;;;;;0.00;0.00;;;;;;;;5087194;28;8865;-76
2024/02/22 08:54:47;;;;;;;;;0.00;0.00;;;;;;;;5098231;28;8882;-76
2024/02/22 08:57:15;;;;;;;;;0.00;0.00;;;;;;;;5085411;28;8854;-75
2024/02/22 08:59:42;;;;;;;;;0.25;0.25;;;;;;;;5087997;28;8888;-76
2024/02/22 09:02:14;;;;;;;;;0.00;0.00;;;;;;;;5078424;28;8927;-76
2024/02/22 09:04:41;;;;;;;;;0.00;0.00;;;;;;;;5089505;28;8842;-78
2024/02/22 09:07:08;;;;;;;;;0.50;0.00;;;;;;;;5087692;28;8901;-78
2024/02/22 09:09:37;;;;;;;;;0.00;0.00;;;;;;;;5087170;28;8869;-77
2024/02/22 09:12:05;;;;;;;;;1.00;1.00;;;;;;;;5087680;28;8865;-76
2024/02/22 09:14:35;;;;;;;;;1.00;1.00;;;;;;;;5086962;28;8880;-74
2024/02/22 09:17:02;;;;;;;;;1.00;1.00;;;;;;;;5089825;28;8850;-75
2024/02/22 09:19:29;;;;;;;;;1.00;1.00;;;;;;;;5087641;28;8843;-78
2024/02/22 09:22:00;;;;;;;;;0.00;0.00;;;;;;;;5087828;28;8851;-77
2024/02/22 09:24:26;;;;;;;;;1.00;1.00;;;;;;;;5087588;28;8947;-76
2024/02/22 09:26:55;;;;;;;;;1.50;1.00;;;;;;;;5095560;28;8840;-79
2024/02/22 09:29:22;;;;;;;;;0.00;0.00;;;;;;;;5087548;28;9585;-76
2024/02/22 09:31:50;;;;;;;;;0.50;0.50;;;;;;;;5087089;28;9395;-76
2024/02/22 09:34:17;;;;;;;;;0.00;0.00;;;;;;;;5088156;28;8870;-75
2024/02/22 09:36:44;;;;;;;;;1.00;1.00;;;;;;;;5090724;28;8858;-75
2024/02/22 09:39:11;;;;;;;;;0.00;0.00;;;;;;;;5092683;28;8839;-76
2024/02/22 09:41:38;;;;;;;;;1.00;1.00;;;;;;;;5094811;28;8838;-77
2024/02/22 09:44:07;;;;;;;;;1.00;1.00;;;;;;;;5094621;28;8842;-78
2024/02/22 09:46:34;;;;;;;;;1.00;1.00;;;;;;;;5105926;28;8875;-79
2024/02/22 09:49:02;;;;;;;;;1.00;1.00;;;;;;;;5093982;28;8826;-75
2024/02/22 09:51:30;;;;;;;;;1.00;1.00;;;;;;;;5095216;28;8960;-75
2024/02/22 09:53:59;;;;;;;;;1.25;1.25;;;;;;;;5092458;28;9001;-75
2024/02/22 09:56:33;;;;;;;;;1.00;1.00;;;;;;;;5089981;28;8842;-78
2024/02/22 09:59:01;;;;;;;;;2.00;2.00;;;;;;;;5090532;28;8846;-74
2024/02/22 10:01:30;;;;;;;;;0.00;0.00;;;;;;;;5089904;28;8790;-76
2024/02/22 10:03:57;;;;;;;;;1.00;1.00;;;;;;;;5090708;28;8877;-75
2024/02/22 10:06:24;;;;;;;;;0.50;0.50;;;;;;;;5089974;28;8850;-75
2024/02/22 10:08:57;;;;;;;;;1.00;1.00;;;;;;;;5089813;28;8909;-76
2024/02/22 10:11:24;;;;;;;;;0.25;0.25;;;;;;;;5090095;28;8838;-75
2024/02/22 10:13:59;;;;;;;;;0.00;0.00;;;;;;;;5089277;28;9625;-76
2024/02/22 10:16:27;;;;;;;;;0.00;0.00;;;;;;;;5090329;28;8877;-75
2024/02/22 10:19:03;;;;;;;;;0.00;0.00;;;;;;;;5090597;28;8839;-75
2024/02/22 10:21:33;;;;;;;;;0.00;0.00;;;;;;;;5091279;28;8846;-76
2024/02/22 10:24:00;;;;;;;;;0.00;0.00;;;;;;;;5091385;28;8983;-76
2024/02/22 10:26:28;;;;;;;;;0.00;0.00;;;;;;;;5092080;28;8988;-76
2024/02/22 10:28:56;;;;;;;;;0.00;0.00;;;;;;;;5092487;28;8850;-75
2024/02/22 10:31:24;;;;;;;;;0.00;0.00;;;;;;;;5089913;28;8782;-75
2024/02/22 10:33:53;;;;;;;;;0.00;0.00;;;;;;;;5089745;28;8869;-77
2024/02/22 10:36:24;;;;;;;;;0.00;0.00;;;;;;;;5090035;28;8877;-76
2024/02/22 10:38:54;;;;;;;;;0.00;0.00;;;;;;;;5101951;28;8838;-75
2024/02/22 10:41:21;;;;;;;;;0.00;0.00;;;;;;;;5089607;28;8857;-77
2024/02/22 10:43:50;;;;;;;;;0.00;0.00;;;;;;;;5089264;28;8841;-76
2024/02/22 10:46:19;;;;;;;;;1.25;1.00;;;;;;;;5089258;28;8842;-77
2024/02/22 10:48:51;;;;;;;;;0.00;0.00;;;;;;;;5089933;28;8866;-77
2024/02/22 10:51:22;;;;;;;;;0.00;0.00;;;;;;;;5090092;28;8858;-76
2024/02/22 10:53:54;;;;;;;;;0.00;0.00;;;;;;;;5089573;28;9106;-75
2024/02/22 10:56:23;;;;;;;;;0.00;0.00;;;;;;;;5077517;28;8890;-75
2024/02/22 10:58:52;;;;;;;;;0.00;0.00;;;;;;;;5089171;28;8872;-75
2024/02/22 11:01:21;;;;;;;;;0.00;0.00;;;;;;;;5088455;28;8794;-75
2024/02/22 11:03:48;;;;;;;;;0.00;0.00;;;;;;;;5089243;28;8854;-75
2024/02/22 11:06:15;;;;;;;;;0.00;0.00;;;;;;;;5088971;28;8839;-75
2024/02/22 11:08:50;;;;;;;;;0.00;0.00;;;;;;;;5087961;28;8861;-78
2024/02/22 11:11:30;;;;;;;;;0.00;0.00;;;;;;;;5088561;28;8888;-78
2024/02/22 11:14:04;;;;;;;;;0.00;0.00;;;;;;;;5085609;28;8926;-75
2024/02/22 11:16:35;;;;;;;;;0.00;0.00;;;;;;;;5077521;28;8860;-78
2024/02/22 11:19:08;;;;;;;;;1.25;0.00;;;;;;;;5091402;28;8877;-75
2024/02/22 11:21:42;;;;;;;;;0.25;0.25;;;;;;;;5092013;28;8848;-78
2024/02/22 11:24:14;;;;;;;;;0.00;0.00;;;;;;;;5088724;28;8935;-76
2024/02/22 11:26:42;;;;;;;;;0.00;0.00;;;;;;;;5094376;28;8938;-75
2024/02/22 11:29:09;;;;;;;;;1.00;1.00;;;;;;;;5090658;28;8854;-77
2024/02/22 11:31:36;;;;;;;;;1.50;0.00;;;;;;;;5092074;28;8925;-76
2024/02/22 11:34:04;;;;;;;;;0.00;0.00;;;;;;;;5094036;28;8843;-77
2024/02/22 11:36:31;;;;;;;;;1.00;1.00;;;;;;;;5089893;28;8864;-75
2024/02/22 11:38:58;;;;;;;;;0.00;0.00;;;;;;;;5095893;28;8840;-75
2024/02/22 11:41:30;;;;;;;;;3.50;3.50;;;;;;;;5088234;28;8826;-74
2024/02/22 11:44:07;;;;;;;;;2.00;2.00;;;;;;;;5089413;28;8838;-75
2024/02/22 11:46:36;;;;;;;;;1.00;1.00;;;;;;;;5089480;28;8845;-76
2024/02/22 11:49:04;;;;;;;;;0.00;0.00;;;;;;;;5085462;28;8853;-73
2024/02/22 11:51:31;;;;;;;;;1.25;0.75;;;;;;;;5087453;28;8846;-74
2024/02/22 11:53:58;;;;;;;;;1.00;1.00;;;;;;;;5087860;28;9637;-74
2024/02/22 11:56:32;;;;;;;;;1.00;1.00;;;;;;;;5088137;28;8865;-74
2024/02/22 11:59:03;;;;;;;;;0.00;0.00;;;;;;;;5080316;28;8861;-73
2024/02/22 12:01:33;;;;;;;;;0.75;0.75;;;;;;;;5079137;28;8798;-75
2024/02/22 12:04:01;;;;;;;;;0.75;0.75;;;;;;;;5088151;28;8861;-76
2024/02/22 12:06:34;;;;;;;;;0.00;0.00;;;;;;;;5088269;28;8854;-76
2024/02/22 12:09:03;;;;;;;;;1.00;1.00;;;;;;;;5088352;28;8868;-75
2024/02/22 12:11:34;;;;;;;;;0.00;0.00;;;;;;;;5089350;28;8843;-81
2024/02/22 12:14:03;;;;;;;;;1.00;1.00;;;;;;;;5088710;28;8838;-75
2024/02/22 12:16:38;;;;;;;;;1.50;1.50;;;;;;;;5089266;28;8925;-73
2024/02/22 12:19:06;;;;;;;;;1.00;1.00;;;;;;;;5088186;28;8864;-74
2024/02/22 12:21:33;;;;;;;;;1.00;1.00;;;;;;;;5087644;28;8853;-73
2024/02/22 12:24:01;;;;;;;;;2.25;0.75;;;;;;;;5087912;28;8844;-75
2024/02/22 12:26:29;;;;;;;;;1.00;1.00;;;;;;;;5087576;28;8873;-74
2024/02/22 12:29:00;;;;;;;;;1.00;1.00;;;;;;;;5088442;28;8848;-74
2024/02/22 12:31:30;;;;;;;;;1.00;1.00;;;;;;;;5075769;28;8779;-73
2024/02/22 12:34:01;;;;;;;;;0.00;0.00;;;;;;;;5088019;28;8864;-73
2024/02/22 12:36:32;;;;;;;;;1.00;1.00;;;;;;;;5088823;28;8893;-75
2024/02/22 12:39:01;;;;;;;;;0.25;0.25;;;;;;;;5099252;28;8953;-74
2024/02/22 12:41:29;;;;;;;;;0.50;0.50;;;;;;;;5087932;28;8862;-73
2024/02/22 12:43:57;;;;;;;;;1.00;1.00;;;;;;;;5087970;28;8842;-74
2024/02/22 12:46:25;;;;;;;;;0.50;0.50;;;;;;;;5087968;28;8915;-74
2024/02/22 12:48:53;;;;;;;;;1.75;1.00;;;;;;;;5085886;28;8850;-74
2024/02/22 12:51:20;;;;;;;;;0.00;0.00;;;;;;;;5087930;28;9512;-74
2024/02/22 12:53:48;;;;;;;;;1.00;1.00;;;;;;;;5087318;28;8854;-78
2024/02/22 12:56:15;;;;;;;;;0.25;0.25;;;;;;;;5087651;28;8846;-76
2024/02/22 12:58:43;;;;;;;;;0.75;0.75;;;;;;;;5085209;28;8964;-78
2024/02/22 13:01:14;;;;;;;;;1.75;0.00;;;;;;;;5087194;28;8808;-78
2024/02/22 13:03:41;;;;;;;;;1.00;1.00;;;;;;;;5086979;28;8899;-78
2024/02/22 13:06:08;;;;;;;;;0.25;0.00;;;;;;;;5087660;28;8873;-78
2024/02/22 13:08:36;;;;;;;;;0.25;0.25;;;;;;;;5087948;28;8846;-80
2024/02/22 13:11:03;;;;;;;;;0.25;0.25;;;;;;;;5090577;28;8953;-74
2024/02/22 13:13:31;;;;;;;;;1.00;1.00;;;;;;;;5093107;28;8853;-77
2024/02/22 13:16:00;;;;;;;;;0.50;0.50;;;;;;;;5094824;28;8846;-80
2024/02/22 13:18:28;;;;;;;;;1.00;1.00;;;;;;;;5095781;28;8842;-81
2024/02/22 13:20:56;;;;;;;;;0.00;0.00;;;;;;;;5095524;28;8846;-76
2024/02/22 13:23:24;;;;;;;;;0.25;0.25;;;;;;;;5095207;28;8858;-77
2024/02/22 13:25:53;;;;;;;;;0.25;0.25;;;;;;;;5093424;28;8943;-75
2024/02/22 13:28:32;;;;;;;;;0.00;0.00;;;;;;;;5093691;28;9272;-79
2024/02/22 13:31:02;;;;;;;;;3.25;0.00;;;;;;;;5092247;28;8884;-79
2024/02/22 13:33:34;;;;;;;;;1.00;1.00;;;;;;;;5091773;28;9654;-74
2024/02/22 13:36:07;;;;;;;;;1.00;1.00;;;;;;;;5090882;28;8858;-79
2024/02/22 13:38:35;;;;;;;;;1.00;1.00;;;;;;;;5090977;28;8858;-75
2024/02/22 13:41:05;;;;;;;;;2.00;2.00;;;;;;;;5090743;28;8876;-75
2024/02/22 13:43:33;;;;;;;;;3.00;2.00;;;;;;;;5088993;28;9762;-79
2024/02/22 13:46:01;;;;;;;;;1.00;1.00;;;;;;;;5090370;28;8868;-74
2024/02/22 13:48:31;;;;;;;;;2.25;2.25;;;;;;;;5090796;28;8850;-79
2024/02/22 13:50:59;;;;;;;;;0.00;0.00;;;;;;;;5091071;28;8861;-76
2024/02/22 13:53:26;;;;;;;;;0.00;0.00;;;;;;;;5090066;28;8834;-75
2024/02/22 13:55:54;;;;;;;;;0.00;0.00;;;;;;;;5090761;28;8853;-78
2024/02/22 13:58:21;;;;;;;;;0.00;0.00;;;;;;;;5091063;28;8875;-76
2024/02/22 14:00:48;;;;;;;;;0.00;0.00;;;;;;;;5090801;28;8891;-76
2024/02/22 14:03:16;;;;;;;;;0.00;0.00;;;;;;;;5091925;28;8832;-75
2024/02/22 14:05:43;;;;;;;;;0.00;0.00;;;;;;;;5092641;28;8857;-75
2024/02/22 14:08:11;;;;;;;;;0.00;0.00;;;;;;;;5090220;28;8904;-82
2024/02/22 14:10:40;;;;;;;;;0.00;0.00;;;;;;;;5090084;28;9722;-78
2024/02/22 14:13:08;;;;;;;;;0.00;0.00;;;;;;;;5090136;28;8868;-76
2024/02/22 14:15:38;;;;;;;;;0.00;0.00;;;;;;;;5087073;28;8886;-74
2024/02/22 14:18:06;;;;;;;;;0.00;0.00;;;;;;;;5088255;28;8854;-75
2024/02/22 14:20:34;;;;;;;;;0.00;0.00;;;;;;;;5089973;28;8873;-75
2024/02/22 14:23:01;;;;;;;;;0.00;0.00;;;;;;;;5089196;28;9593;-74
2024/02/22 14:25:30;;;;;;;;;0.00;0.00;;;;;;;;5090644;28;8835;-75
2024/02/22 14:27:58;;;;;;;;;0.00;0.00;;;;;;;;5089617;28;8850;-75
2024/02/22 14:30:25;;;;;;;;;0.00;0.00;;;;;;;;5089342;28;8861;-75
2024/02/22 14:32:53;;;;;;;;;0.00;0.00;;;;;;;;5089246;28;8854;-78
2024/02/22 14:35:20;;;;;;;;;0.00;0.00;;;;;;;;5089551;28;8878;-78
2024/02/22 14:37:47;;;;;;;;;0.00;0.00;;;;;;;;5088487;28;8868;-78
2024/02/22 14:40:16;;;;;;;;;0.00;0.00;;;;;;;;5089274;28;9621;-73
2024/02/22 14:42:45;;;;;;;;;0.00;0.00;;;;;;;;5089634;28;8861;-76
2024/02/22 14:45:12;;;;;;;;;0.00;0.00;;;;;;;;5083506;28;8835;-79
2024/02/22 14:47:39;;;;;;;;;0.00;0.00;;;;;;;;5089025;28;8830;-76
2024/02/22 14:50:09;;;;;;;;;0.00;0.00;;;;;;;;5089406;28;8854;-78
2024/02/22 14:52:36;;;;;;;;;0.00;0.00;;;;;;;;5081292;28;8860;-79
2024/02/22 14:55:04;;;;;;;;;1.00;0.00;;;;;;;;5077885;28;8870;-76
2024/02/22 14:57:32;;;;;;;;;0.00;0.00;;;;;;;;5089737;28;8973;-76
2024/02/22 15:00:02;;;;;;;;;0.00;0.00;;;;;;;;5091439;28;8849;-79
2024/02/22 15:02:34;;;;;;;;;0.00;0.00;;;;;;;;5091332;28;8809;-82
2024/02/22 15:05:02;;;;;;;;;0.00;0.00;;;;;;;;5094112;28;8868;-79
2024/02/22 15:07:34;;;;;;;;;0.00;0.00;;;;;;;;5093986;28;8846;-85